Terminal Aerodrome Forecast
Issued by NWS Greer, SC

Home | Current Version | Previous Version | Text Only | Print | Product List | Glossary On
Versions: 1 2 3 4 5 6 7 8 9 10 11 12 13 14 15 16 17 18 19 20 21 22 23 24 25 26 27 28 29 30 31 32 33 34 35 36
000
FTUS42 KGSP 281137
TAFAVL
TAF
KAVL 281137Z 2812/2912 34009KT P6SM VCSH SCT040 BKN120
     FM281800 33010G18KT P6SM VCTS BKN050CB
     FM282100 32011KT P6SM BKN060 PROB30 2821/2902 4SM -TSRA
      OVC040CB
     FM290300 34006KT P6SM SCT060 BKN120
     FM290900 34005KT 5SM BR SCT120 BKN250=

USA.gov is the U.S. government's official web portal to all federal, state and local government web resources and services.